KMKL/MKL METAR and TAF weather

Enter ICAO airport designator
Station Type Date Time Source
KMKL METAR 2020/04/04 11:53 UTC NOAA

KMKL 041153Z 00000KT 10SM OVC060 13/11 A3006 RMK AO2 SLP176 T01330111 10139 20100 53014


Station Type Date Time Source
KMKL Decoded METAR 2020/04/04 11:53 UTC NOAA

JACKSON MCKELLAR-SIPES RGNL, TN, United States (KMKL) 35-36N 088-55W 128M
Apr 04, 2020 - 07:53 AM EDT / 2020.04.04 1153 UTC
Wind: Calm:0
Visibility: 10 mile(s):0
Sky conditions: overcast
Temperature: 55.9 F (13.3 C)
Dew Point: 52.0 F (11.1 C)
Relative Humidity: 86%
Pressure (altimeter): 30.06 in. Hg (1017 hPa)
Pressure tendency: 0.04 inches (1.4 hPa) higher than three hours ago
ob: KMKL 041153Z 00000KT 10SM OVC060 13/11 A3006 RMK AO2 SLP176 T01330111 10139 20100 53014
cycle: 12

Station Type Date Time Source
KMKL TAF 2020/04/04 12:24 UTC NOAA

TAF KMKL 041122Z 0412/0512 00000KT P6SM OVC060
FM041300 36005KT P6SM OVC040
FM042000 36006KT P6SM BKN080
FM050800 01004KT P6SM BKN035

Example: see airport list